Saint-Moise, Canada
Current Conditions -  °F | °C
As of 10:00 PM on Friday 28 Nov 2014 (Local Time) from CYYY Reporting Station
Light Snow Light Snow  
Wind Chill: 13°   Ceiling: 2000
Heat Index: 19°   Visibility: 6mi
Dew Point: 16°   Wind: 5mph
Humidity: 86%   Direction: 300°WNW
Pressure: 30.06"   Gusts: NA
Location:  48.53°N, 67.85°W
Report Text: CYYY 290300Z 30004KT 250V320 6SM -SN OVC020 M07/M09 A3006 RMK SC8 SLP181
Loading
Personal Weather Stations






























Interactive Weather Map New forecast layout! Learn more

10-Day Weather Forecast

Advertisements
Track Severe Weather on mobile